Time;durP1;ratioP1;P1;durP2;ratioP2;P2;SDS_P1;SDS_P2;PMS_P1;PMS_P2;Temp;Humidity;BMP_temperature;BMP_pressure;BME280_temperature;BME280_humidity;BME280_pressure;Samples;Min_cycle;Max_cycle;Signal;HPM_P1;HPM_P2
2023/12/29 00:01:18;;;;;;;0.65;0.65;;;;;;;;;;5035245;28;20033;-79
2023/12/29 00:03:46;;;;;;;2.33;1.88;;;;;;;;;;5031317;28;20095;-79
2023/12/29 00:06:15;;;;;;;1.63;1.52;;;;;;;;;;5024858;28;20052;-80
2023/12/29 00:08:43;;;;;;;0.77;0.77;;;;;;;;;;5050710;28;20071;-80
2023/12/29 00:11:17;;;;;;;0.30;0.30;;;;;;;;;;5036408;28;21086;-79
2023/12/29 00:13:45;;;;;;;1.45;0.90;;;;;;;;;;5032596;28;20048;-79
2023/12/29 00:16:14;;;;;;;1.15;1.05;;;;;;;;;;5047439;28;20696;-81
2023/12/29 00:18:42;;;;;;;0.38;0.38;;;;;;;;;;5034757;28;20045;-79
2023/12/29 00:21:10;;;;;;;0.60;0.60;;;;;;;;;;5045110;28;20044;-79
2023/12/29 00:23:38;;;;;;;2.13;1.95;;;;;;;;;;5019525;28;20041;-79
2023/12/29 00:26:05;;;;;;;1.23;1.17;;;;;;;;;;5034456;28;20057;-79
2023/12/29 00:28:40;;;;;;;0.25;0.25;;;;;;;;;;5053910;28;20044;-79
2023/12/29 00:31:09;;;;;;;0.35;0.35;;;;;;;;;;5027152;28;20052;-79
2023/12/29 00:33:38;;;;;;;0.82;0.82;;;;;;;;;;5032109;28;20041;-79
2023/12/29 00:36:06;;;;;;;0.40;0.40;;;;;;;;;;5031454;28;20144;-79
2023/12/29 00:38:34;;;;;;;0.73;0.73;;;;;;;;;;5026165;28;20046;-79
2023/12/29 00:41:05;;;;;;;0.20;0.20;;;;;;;;;;5034634;28;20034;-79
2023/12/29 00:43:33;;;;;;;0.20;0.20;;;;;;;;;;5025778;28;20572;-79
2023/12/29 00:46:02;;;;;;;1.00;0.57;;;;;;;;;;5013811;28;20045;-80
2023/12/29 00:48:30;;;;;;;0.10;0.10;;;;;;;;;;5019430;28;20532;-79
2023/12/29 00:51:01;;;;;;;0.32;0.32;;;;;;;;;;5034023;28;20045;-79
2023/12/29 00:53:33;;;;;;;0.30;0.30;;;;;;;;;;5029292;28;20124;-80
2023/12/29 00:56:02;;;;;;;4.47;3.33;;;;;;;;;;5031904;28;20048;-79
2023/12/29 00:58:32;;;;;;;0.10;0.10;;;;;;;;;;5026596;28;20063;-79
2023/12/29 01:01:00;;;;;;;0.40;0.40;;;;;;;;;;5029281;28;20048;-80
2023/12/29 01:03:29;;;;;;;1.10;1.10;;;;;;;;;;5030487;28;20525;-80
2023/12/29 01:05:57;;;;;;;0.68;0.68;;;;;;;;;;5032050;28;20049;-80
2023/12/29 01:08:28;;;;;;;0.38;0.38;;;;;;;;;;5029067;28;20040;-80
2023/12/29 01:10:57;;;;;;;0.57;0.57;;;;;;;;;;5014675;28;20067;-80
2023/12/29 01:13:28;;;;;;;0.77;0.55;;;;;;;;;;5028329;28;20068;-79
2023/12/29 01:15:56;;;;;;;1.27;1.08;;;;;;;;;;5026238;28;20046;-84
2023/12/29 01:18:25;;;;;;;0.57;0.57;;;;;;;;;;5030857;28;20075;-80
2023/12/29 01:20:54;;;;;;;1.58;1.48;;;;;;;;;;5026731;28;20045;-79
2023/12/29 01:23:22;;;;;;;1.00;1.00;;;;;;;;;;5048787;28;20120;-80
2023/12/29 01:25:51;;;;;;;0.00;0.00;;;;;;;;;;5024618;28;20041;-79
2023/12/29 01:28:19;;;;;;;0.15;0.15;;;;;;;;;;5027332;28;20076;-79
2023/12/29 01:30:49;;;;;;;1.25;0.65;;;;;;;;;;4999431;28;20045;-79
2023/12/29 01:33:19;;;;;;;0.10;0.10;;;;;;;;;;5029738;28;20045;-79
2023/12/29 01:35:47;;;;;;;0.10;0.10;;;;;;;;;;5024762;28;20037;-79
2023/12/29 01:38:15;;;;;;;0.00;0.00;;;;;;;;;;5029306;28;20045;-79
2023/12/29 01:40:45;;;;;;;2.08;1.98;;;;;;;;;;5020998;28;20045;-79
2023/12/29 01:43:13;;;;;;;0.15;0.15;;;;;;;;;;5032012;28;20584;-79
2023/12/29 01:45:43;;;;;;;0.80;0.75;;;;;;;;;;5027339;28;20387;-79
2023/12/29 01:48:24;;;;;;;2.42;1.67;;;;;;;;;;5026336;28;20040;-79
2023/12/29 01:50:54;;;;;;;0.45;0.45;;;;;;;;;;5028392;28;20056;-79
2023/12/29 01:53:23;;;;;;;7.93;4.55;;;;;;;;;;5030909;28;20123;-80
2023/12/29 01:56:06;;;;;;;0.20;0.20;;;;;;;;;;5038672;28;20532;-79
2023/12/29 01:58:34;;;;;;;0.10;0.10;;;;;;;;;;5026629;28;20040;-79
2023/12/29 02:01:02;;;;;;;0.43;0.43;;;;;;;;;;5029276;28;20064;-79
2023/12/29 02:03:29;;;;;;;0.10;0.10;;;;;;;;;;5021166;28;20088;-79
2023/12/29 02:05:58;;;;;;;0.47;0.47;;;;;;;;;;5030560;28;20060;-79
2023/12/29 02:08:25;;;;;;;0.20;0.20;;;;;;;;;;5045565;28;20765;-79
2023/12/29 02:10:53;;;;;;;0.20;0.20;;;;;;;;;;5029583;28;20561;-79
2023/12/29 02:13:22;;;;;;;0.43;0.43;;;;;;;;;;5044089;28;20132;-81
2023/12/29 02:15:54;;;;;;;1.67;1.45;;;;;;;;;;5026502;28;20050;-79
2023/12/29 02:18:22;;;;;;;0.65;0.65;;;;;;;;;;5028663;28;20060;-79
2023/12/29 02:20:50;;;;;;;0.40;0.40;;;;;;;;;;5044017;28;20041;-80
2023/12/29 02:23:17;;;;;;;0.63;0.63;;;;;;;;;;5029939;28;20445;-79
2023/12/29 02:25:45;;;;;;;2.78;2.58;;;;;;;;;;5024614;28;20134;-79
2023/12/29 02:28:18;;;;;;;0.20;0.20;;;;;;;;;;5027687;28;20029;-79
2023/12/29 02:30:48;;;;;;;0.28;0.28;;;;;;;;;;5026441;28;20045;-80
2023/12/29 02:33:19;;;;;;;0.10;0.10;;;;;;;;;;5045695;28;20083;-79
2023/12/29 02:35:49;;;;;;;5.30;1.80;;;;;;;;;;5044314;28;20072;-79
2023/12/29 02:38:16;;;;;;;1.00;1.00;;;;;;;;;;5033554;28;20048;-79
2023/12/29 02:40:44;;;;;;;2.55;1.55;;;;;;;;;;5053021;28;20139;-79
2023/12/29 02:43:14;;;;;;;0.17;0.17;;;;;;;;;;5050957;28;20044;-79
2023/12/29 02:45:42;;;;;;;0.45;0.45;;;;;;;;;;5029786;28;20065;-80
2023/12/29 02:48:10;;;;;;;0.32;0.32;;;;;;;;;;5013315;28;20063;-79
2023/12/29 02:50:38;;;;;;;0.10;0.10;;;;;;;;;;5029840;28;20573;-80
2023/12/29 02:53:07;;;;;;;0.85;0.85;;;;;;;;;;5046775;28;20057;-80
2023/12/29 02:55:35;;;;;;;1.02;0.98;;;;;;;;;;5031907;28;20047;-79
2023/12/29 02:58:03;;;;;;;1.20;1.10;;;;;;;;;;5044690;28;20407;-79
2023/12/29 03:00:32;;;;;;;2.78;2.55;;;;;;;;;;5045744;28;20033;-79
2023/12/29 03:03:01;;;;;;;0.38;0.20;;;;;;;;;;5018322;28;20045;-80
2023/12/29 03:05:29;;;;;;;5.72;3.70;;;;;;;;;;5028583;28;20515;-80
2023/12/29 03:07:57;;;;;;;1.20;1.10;;;;;;;;;;5029758;28;20045;-80
2023/12/29 03:10:26;;;;;;;2.85;2.65;;;;;;;;;;5028081;28;21040;-79
2023/12/29 03:12:55;;;;;;;0.65;0.65;;;;;;;;;;5032835;28;20135;-78
2023/12/29 03:15:23;;;;;;;5.22;3.15;;;;;;;;;;5032426;28;20782;-80
2023/12/29 03:17:51;;;;;;;4.25;2.97;;;;;;;;;;5029837;28;20553;-79
2023/12/29 03:20:21;;;;;;;8.02;1.55;;;;;;;;;;5032419;28;20037;-79
2023/12/29 03:22:50;;;;;;;0.30;0.30;;;;;;;;;;5029941;28;20127;-79
2023/12/29 03:25:19;;;;;;;2.80;2.60;;;;;;;;;;5030673;28;20076;-79
2023/12/29 03:27:47;;;;;;;1.48;1.10;;;;;;;;;;5030029;28;20073;-79
2023/12/29 03:30:16;;;;;;;0.35;0.35;;;;;;;;;;5021352;23;20043;-76
2023/12/29 03:32:44;;;;;;;5.95;4.82;;;;;;;;;;5024995;28;20312;-78
2023/12/29 03:35:11;;;;;;;1.67;1.58;;;;;;;;;;5046736;28;20491;-78
2023/12/29 03:37:39;;;;;;;3.55;1.58;;;;;;;;;;5031908;28;20359;-78
2023/12/29 03:40:07;;;;;;;0.70;0.65;;;;;;;;;;5031704;28;20781;-79
2023/12/29 03:42:38;;;;;;;1.60;0.93;;;;;;;;;;5048413;28;20469;-78
2023/12/29 03:45:06;;;;;;;1.38;0.85;;;;;;;;;;5029290;28;20044;-76
2023/12/29 03:47:35;;;;;;;0.57;0.57;;;;;;;;;;5047138;28;20329;-78
2023/12/29 03:50:03;;;;;;;2.03;1.10;;;;;;;;;;5050809;28;20091;-78
2023/12/29 03:52:31;;;;;;;2.85;2.50;;;;;;;;;;5047510;28;20105;-75
2023/12/29 03:54:58;;;;;;;0.68;0.68;;;;;;;;;;5028301;28;20058;-77
2023/12/29 03:57:26;;;;;;;2.08;1.70;;;;;;;;;;5024479;28;20471;-79
2023/12/29 03:59:54;;;;;;;0.80;0.80;;;;;;;;;;5044917;28;20127;-78
2023/12/29 04:02:22;;;;;;;0.40;0.40;;;;;;;;;;5050212;28;20052;-78
2023/12/29 04:04:49;;;;;;;1.00;1.00;;;;;;;;;;5047240;28;20491;-79
2023/12/29 04:07:17;;;;;;;6.15;4.07;;;;;;;;;;5049097;28;20053;-77
2023/12/29 04:09:44;;;;;;;0.28;0.28;;;;;;;;;;5045329;28;20510;-79
2023/12/29 04:12:12;;;;;;;1.98;1.85;;;;;;;;;;5046383;28;20103;-77
2023/12/29 04:14:39;;;;;;;1.10;1.10;;;;;;;;;;5043823;28;20048;-78
2023/12/29 04:17:13;;;;;;;2.20;2.05;;;;;;;;;;5046349;28;20049;-78
2023/12/29 04:19:42;;;;;;;6.32;4.15;;;;;;;;;;5024568;28;20045;-78
2023/12/29 04:22:10;;;;;;;2.20;1.73;;;;;;;;;;5051143;28;20045;-79
2023/12/29 04:24:38;;;;;;;1.73;1.60;;;;;;;;;;5050189;28;20103;-79
2023/12/29 04:27:06;;;;;;;1.40;1.23;;;;;;;;;;5049768;28;20049;-78
2023/12/29 04:29:33;;;;;;;2.03;1.80;;;;;;;;;;5049463;28;20069;-79
2023/12/29 04:32:02;;;;;;;1.52;1.38;;;;;;;;;;5030377;28;20048;-79
2023/12/29 04:34:29;;;;;;;4.15;1.45;;;;;;;;;;5051544;28;20057;-79
2023/12/29 04:36:57;;;;;;;1.02;1.02;;;;;;;;;;5048125;28;20565;-78
2023/12/29 04:39:26;;;;;;;1.88;1.77;;;;;;;;;;5049454;28;20041;-79
2023/12/29 04:41:54;;;;;;;0.80;0.80;;;;;;;;;;5032606;28;20498;-79
2023/12/29 04:44:21;;;;;;;1.80;1.67;;;;;;;;;;5046362;28;20072;-77
2023/12/29 04:46:49;;;;;;;0.30;0.30;;;;;;;;;;5047501;28;20279;-79
2023/12/29 04:49:16;;;;;;;1.13;1.13;;;;;;;;;;5051588;28;20049;-79
2023/12/29 04:51:44;;;;;;;0.85;0.85;;;;;;;;;;5030949;28;20075;-78
2023/12/29 04:54:12;;;;;;;0.90;0.32;;;;;;;;;;5049620;28;20065;-78
2023/12/29 04:56:40;;;;;;;1.05;1.05;;;;;;;;;;5042371;28;20049;-75
2023/12/29 04:59:07;;;;;;;1.35;1.17;;;;;;;;;;5046607;28;20076;-81
2023/12/29 05:01:35;;;;;;;0.32;0.32;;;;;;;;;;5048082;28;20049;-79
2023/12/29 05:04:03;;;;;;;0.60;0.60;;;;;;;;;;5046385;28;20064;-78
2023/12/29 05:06:30;;;;;;;3.17;1.13;;;;;;;;;;5044540;28;20499;-76
2023/12/29 05:08:59;;;;;;;1.67;1.08;;;;;;;;;;5045917;28;20056;-78
2023/12/29 05:11:27;;;;;;;0.40;0.40;;;;;;;;;;5042164;28;20045;-78
2023/12/29 05:13:54;;;;;;;0.95;0.95;;;;;;;;;;5045979;28;20805;-78
2023/12/29 05:16:22;;;;;;;0.45;0.45;;;;;;;;;;5044282;28;20168;-78
2023/12/29 05:18:49;;;;;;;0.25;0.25;;;;;;;;;;5048367;28;20072;-79
2023/12/29 05:21:18;;;;;;;2.40;2.13;;;;;;;;;;5047572;28;20519;-75
2023/12/29 05:23:47;;;;;;;0.40;0.40;;;;;;;;;;5046747;28;20037;-79
2023/12/29 05:26:15;;;;;;;1.83;1.17;;;;;;;;;;5043061;28;20048;-78
2023/12/29 05:28:43;;;;;;;1.92;1.67;;;;;;;;;;5047149;28;20106;-76
2023/12/29 05:31:10;;;;;;;1.52;1.42;;;;;;;;;;5046407;28;20458;-79
2023/12/29 05:33:38;;;;;;;0.93;0.93;;;;;;;;;;5045901;28;20048;-77
2023/12/29 05:36:07;;;;;;;2.17;1.60;;;;;;;;;;5029354;28;20052;-79
2023/12/29 05:38:35;;;;;;;0.50;0.50;;;;;;;;;;5043819;28;20268;-79
2023/12/29 05:41:04;;;;;;;2.22;1.65;;;;;;;;;;5047198;28;20568;-77
2023/12/29 05:43:33;;;;;;;0.68;0.68;;;;;;;;;;5048359;28;20045;-79
2023/12/29 05:46:01;;;;;;;0.20;0.20;;;;;;;;;;5045972;28;20426;-76
2023/12/29 05:48:29;;;;;;;0.70;0.65;;;;;;;;;;5044332;28;20041;-76
2023/12/29 05:50:57;;;;;;;0.73;0.73;;;;;;;;;;5049279;28;20521;-79
2023/12/29 05:53:24;;;;;;;0.82;0.82;;;;;;;;;;5047005;28;20037;-78
2023/12/29 05:55:52;;;;;;;0.40;0.40;;;;;;;;;;5047061;28;20061;-78
2023/12/29 05:58:20;;;;;;;0.38;0.38;;;;;;;;;;5041817;28;20100;-76
2023/12/29 06:00:47;;;;;;;2.38;2.28;;;;;;;;;;5043761;28;20225;-79
2023/12/29 06:03:15;;;;;;;0.85;0.85;;;;;;;;;;5042736;28;20045;-79
2023/12/29 06:05:43;;;;;;;2.85;1.77;;;;;;;;;;5049688;28;20099;-79
2023/12/29 06:08:13;;;;;;;0.30;0.30;;;;;;;;;;5043345;28;20352;-79
2023/12/29 06:10:41;;;;;;;0.28;0.28;;;;;;;;;;5038620;28;20115;-78
2023/12/29 06:13:08;;;;;;;0.55;0.55;;;;;;;;;;5049313;28;20075;-76
2023/12/29 06:15:36;;;;;;;0.45;0.45;;;;;;;;;;5044892;28;20056;-79
2023/12/29 06:18:04;;;;;;;0.98;0.90;;;;;;;;;;5050043;28;20059;-78
2023/12/29 06:20:33;;;;;;;1.48;1.40;;;;;;;;;;5048582;28;20041;-77
2023/12/29 06:23:01;;;;;;;0.30;0.30;;;;;;;;;;5041440;28;20443;-79
2023/12/29 06:25:29;;;;;;;0.38;0.38;;;;;;;;;;5045617;28;20045;-79
2023/12/29 06:27:56;;;;;;;0.30;0.30;;;;;;;;;;5045319;28;20065;-79
2023/12/29 06:30:25;;;;;;;0.57;0.57;;;;;;;;;;5044202;28;20516;-76
2023/12/29 06:32:52;;;;;;;0.95;0.77;;;;;;;;;;5042546;28;20084;-79
2023/12/29 06:35:20;;;;;;;8.35;4.25;;;;;;;;;;5049084;28;20053;-77
2023/12/29 06:37:48;;;;;;;1.60;0.90;;;;;;;;;;5050344;28;20114;-76
2023/12/29 06:40:16;;;;;;;0.95;0.95;;;;;;;;;;5050861;28;20510;-79
2023/12/29 06:42:45;;;;;;;1.15;1.05;;;;;;;;;;5051884;28;20095;-79
2023/12/29 06:45:12;;;;;;;3.05;2.65;;;;;;;;;;5046748;28;20147;-76
2023/12/29 06:47:40;;;;;;;1.10;1.10;;;;;;;;;;5050510;28;20488;-79
2023/12/29 06:50:12;;;;;;;4.68;1.67;;;;;;;;;;5047358;28;20103;-79
2023/12/29 06:52:40;;;;;;;0.57;0.57;;;;;;;;;;5050585;28;20037;-79
2023/12/29 06:55:08;;;;;;;0.38;0.38;;;;;;;;;;5048153;28;20099;-79
2023/12/29 06:57:36;;;;;;;0.90;0.90;;;;;;;;;;5052181;28;20053;-79
2023/12/29 07:00:04;;;;;;;2.42;1.10;;;;;;;;;;5045972;28;20506;-77
2023/12/29 07:02:33;;;;;;;0.40;0.40;;;;;;;;;;5041744;28;20041;-79
2023/12/29 07:05:01;;;;;;;0.45;0.40;;;;;;;;;;5047023;28;20529;-79
2023/12/29 07:07:28;;;;;;;0.85;0.85;;;;;;;;;;5047936;28;20037;-79
2023/12/29 07:09:56;;;;;;;0.75;0.75;;;;;;;;;;5047765;28;20056;-78
2023/12/29 07:12:23;;;;;;;0.52;0.52;;;;;;;;;;5044896;28;20055;-76
2023/12/29 07:14:53;;;;;;;1.70;1.35;;;;;;;;;;5044228;28;20177;-77
2023/12/29 07:17:23;;;;;;;0.65;0.45;;;;;;;;;;5047273;28;20431;-76
2023/12/29 07:19:51;;;;;;;0.17;0.17;;;;;;;;;;5040762;28;20068;-78
2023/12/29 07:22:18;;;;;;;1.23;1.13;;;;;;;;;;5047391;28;20083;-75
2023/12/29 07:24:47;;;;;;;0.10;0.10;;;;;;;;;;5046176;28;20445;-78
2023/12/29 07:27:14;;;;;;;0.10;0.10;;;;;;;;;;5049337;28;20455;-77
2023/12/29 07:29:42;;;;;;;0.45;0.45;;;;;;;;;;5044591;28;20076;-75
2023/12/29 07:32:10;;;;;;;0.75;0.75;;;;;;;;;;5044151;28;20078;-76
2023/12/29 07:34:38;;;;;;;0.57;0.57;;;;;;;;;;5050572;28;20455;-79
2023/12/29 07:37:06;;;;;;;1.33;1.20;;;;;;;;;;5046586;28;20128;-78
2023/12/29 07:39:37;;;;;;;2.10;1.40;;;;;;;;;;5039847;28;20108;-76
2023/12/29 07:42:05;;;;;;;0.77;0.77;;;;;;;;;;5019519;28;20045;-76
2023/12/29 07:44:33;;;;;;;1.00;0.98;;;;;;;;;;5039487;28;20049;-79
2023/12/29 07:47:01;;;;;;;0.95;0.95;;;;;;;;;;5043943;28;20359;-75
2023/12/29 07:49:29;;;;;;;0.75;0.75;;;;;;;;;;5040218;28;20041;-79
2023/12/29 07:51:59;;;;;;;0.35;0.35;;;;;;;;;;5046285;28;20426;-79
2023/12/29 07:54:27;;;;;;;0.70;0.70;;;;;;;;;;5043983;28;20045;-78
2023/12/29 07:56:54;;;;;;;6.13;1.85;;;;;;;;;;5048669;28;20162;-77
2023/12/29 07:59:22;;;;;;;0.60;0.60;;;;;;;;;;5050798;28;20049;-79
2023/12/29 08:01:50;;;;;;;0.57;0.57;;;;;;;;;;5040425;28;20399;-78
2023/12/29 08:04:17;;;;;;;0.47;0.45;;;;;;;;;;5048056;28;20115;-76
2023/12/29 08:06:46;;;;;;;1.05;0.95;;;;;;;;;;5046727;28;20316;-78
2023/12/29 08:09:15;;;;;;;0.30;0.30;;;;;;;;;;5052222;28;20037;-78
2023/12/29 08:11:43;;;;;;;2.45;1.50;;;;;;;;;;5047643;28;20269;-79
2023/12/29 08:14:11;;;;;;;1.17;1.13;;;;;;;;;;5047038;28;20079;-78
2023/12/29 08:16:42;;;;;;;2.15;1.48;;;;;;;;;;5047557;28;20075;-77
2023/12/29 08:19:10;;;;;;;0.75;0.75;;;;;;;;;;5048436;28;20094;-77
2023/12/29 08:21:38;;;;;;;8.15;5.55;;;;;;;;;;5047743;28;20057;-76
2023/12/29 08:24:06;;;;;;;0.88;0.88;;;;;;;;;;5043423;28;20060;-78
2023/12/29 08:26:34;;;;;;;0.57;0.57;;;;;;;;;;5043991;28;20045;-79
2023/12/29 08:29:01;;;;;;;1.83;1.73;;;;;;;;;;5043436;28;20065;-78
2023/12/29 08:31:29;;;;;;;1.33;1.23;;;;;;;;;;5047326;28;20411;-77
2023/12/29 08:33:57;;;;;;;2.72;2.08;;;;;;;;;;5046145;28;20080;-78
2023/12/29 08:36:25;;;;;;;1.25;1.15;;;;;;;;;;5047285;28;20049;-75
2023/12/29 08:38:53;;;;;;;0.47;0.47;;;;;;;;;;5052283;28;20056;-77
2023/12/29 08:41:20;;;;;;;1.85;1.75;;;;;;;;;;5057350;28;20409;-78
2023/12/29 08:43:48;;;;;;;0.40;0.40;;;;;;;;;;5057497;28;20049;-78
2023/12/29 08:46:16;;;;;;;0.65;0.32;;;;;;;;;;5053573;28;20033;-78
2023/12/29 08:48:43;;;;;;;0.10;0.10;;;;;;;;;;5049761;28;20052;-77
2023/12/29 08:51:11;;;;;;;1.67;1.58;;;;;;;;;;5030457;28;20076;-79
2023/12/29 08:53:39;;;;;;;0.80;0.80;;;;;;;;;;5052878;28;20045;-79
2023/12/29 08:56:06;;;;;;;0.28;0.28;;;;;;;;;;5051604;28;20052;-78
2023/12/29 08:58:34;;;;;;;0.40;0.40;;;;;;;;;;5041384;28;20419;-77
2023/12/29 09:01:02;;;;;;;0.77;0.77;;;;;;;;;;5045544;28;20053;-79
2023/12/29 09:03:29;;;;;;;0.50;0.50;;;;;;;;;;5049244;28;20423;-79
2023/12/29 09:05:58;;;;;;;1.17;1.08;;;;;;;;;;5031969;28;20564;-79
2023/12/29 09:08:27;;;;;;;0.80;0.40;;;;;;;;;;5021866;28;20055;-76
2023/12/29 09:10:55;;;;;;;2.17;2.03;;;;;;;;;;5046233;28;20041;-77
2023/12/29 09:13:25;;;;;;;1.08;0.80;;;;;;;;;;5035817;28;20513;-77
2023/12/29 09:15:52;;;;;;;2.42;1.15;;;;;;;;;;5039903;28;20041;-79
2023/12/29 09:18:20;;;;;;;4.00;2.47;;;;;;;;;;5046830;28;20045;-79
2023/12/29 09:20:48;;;;;;;4.18;2.30;;;;;;;;;;5044905;28;20045;-79
2023/12/29 09:23:16;;;;;;;2.42;1.95;;;;;;;;;;5046113;28;20037;-79
2023/12/29 09:25:44;;;;;;;13.80;8.35;;;;;;;;;;5046685;28;20041;-79
2023/12/29 09:28:12;;;;;;;0.80;0.80;;;;;;;;;;5037100;28;20045;-77
2023/12/29 09:30:39;;;;;;;0.45;0.45;;;;;;;;;;5042638;28;20133;-78
2023/12/29 09:33:10;;;;;;;1.00;1.00;;;;;;;;;;5030497;28;20048;-77
2023/12/29 09:35:38;;;;;;;0.88;0.88;;;;;;;;;;5047323;28;20049;-78
2023/12/29 09:38:05;;;;;;;1.08;1.08;;;;;;;;;;5037858;28;20194;-79
2023/12/29 09:40:34;;;;;;;0.77;0.77;;;;;;;;;;5034968;28;20041;-79
2023/12/29 09:43:04;;;;;;;1.60;1.50;;;;;;;;;;5046495;28;20094;-79
2023/12/29 09:45:34;;;;;;;1.30;0.90;;;;;;;;;;5025810;28;20049;-76
2023/12/29 09:48:02;;;;;;;3.65;0.45;;;;;;;;;;5019237;28;20049;-79
2023/12/29 09:50:31;;;;;;;1.25;1.08;;;;;;;;;;5044117;28;20048;-78
2023/12/29 09:53:00;;;;;;;0.63;0.63;;;;;;;;;;5039269;28;20077;-79
2023/12/29 09:55:28;;;;;;;1.15;1.15;;;;;;;;;;5047895;28;20521;-77
2023/12/29 09:57:56;;;;;;;0.60;0.60;;;;;;;;;;5042940;28;20084;-76
2023/12/29 10:00:23;;;;;;;1.35;1.33;;;;;;;;;;5045126;28;20060;-79
2023/12/29 10:02:55;;;;;;;1.42;0.98;;;;;;;;;;5042330;28;20037;-78
2023/12/29 10:05:22;;;;;;;0.35;0.35;;;;;;;;;;5046870;28;20080;-78
2023/12/29 10:07:51;;;;;;;0.30;0.30;;;;;;;;;;5046827;28;20045;-78
2023/12/29 10:10:23;;;;;;;0.57;0.50;;;;;;;;;;5047561;28;20494;-78
2023/12/29 10:12:50;;;;;;;;;;;;;;;;;;5029742;28;20533;-78
2023/12/29 10:15:22;;;;;;;3.28;1.27;;;;;;;;;;5043237;28;20073;-79
2023/12/29 10:18:07;;;;;;;2.53;1.20;;;;;;;;;;5024701;28;20144;-76
2023/12/29 10:20:53;;;;;;;3.45;3.08;;;;;;;;;;5043256;28;20049;-76
2023/12/29 10:23:26;;;;;;;0.68;0.57;;;;;;;;;;5030518;28;20045;-76
2023/12/29 10:25:54;;;;;;;0.60;0.57;;;;;;;;;;5025251;28;20095;-78
2023/12/29 10:28:21;;;;;;;0.85;0.85;;;;;;;;;;5040094;28;20123;-77
2023/12/29 10:30:50;;;;;;;0.10;0.10;;;;;;;;;;5012001;28;20360;-79
2023/12/29 10:33:29;;;;;;;0.38;0.30;;;;;;;;;;5039444;28;20072;-78
2023/12/29 10:36:06;;;;;;;0.28;0.28;;;;;;;;;;5035408;28;20052;-79
2023/12/29 10:38:34;;;;;;;0.93;0.93;;;;;;;;;;5045215;28;20053;-79
2023/12/29 10:41:14;;;;;;;0.20;0.20;;;;;;;;;;5024249;28;20397;-79
2023/12/29 10:43:43;;;;;;;0.20;0.20;;;;;;;;;;5044597;28;20045;-77
2023/12/29 10:46:11;;;;;;;0.10;0.10;;;;;;;;;;5040384;28;20122;-77
2023/12/29 10:48:39;;;;;;;0.10;0.10;;;;;;;;;;5041142;28;20037;-79
2023/12/29 10:51:07;;;;;;;0.32;0.32;;;;;;;;;;5029494;28;20041;-79
2023/12/29 10:53:35;;;;;;;0.90;0.90;;;;;;;;;;5044590;28;20495;-76
2023/12/29 10:56:22;;;;;;;0.22;0.22;;;;;;;;;;5040091;28;20045;-79
2023/12/29 10:58:49;;;;;;;;;;;;;;;;;;5045696;28;20049;-78
2023/12/29 11:01:19;;;;;;;0.70;0.70;;;;;;;;;;5041215;28;19968;-77
2023/12/29 11:03:58;;;;;;;0.93;0.93;;;;;;;;;;5035286;28;20041;-77
2023/12/29 11:06:27;;;;;;;0.10;0.10;;;;;;;;;;5040974;28;20050;-75
2023/12/29 11:08:55;;;;;;;0.65;0.65;;;;;;;;;;5036479;28;20302;-78
2023/12/29 11:11:23;;;;;;;0.45;0.45;;;;;;;;;;5035145;28;20049;-77
2023/12/29 11:13:51;;;;;;;0.20;0.20;;;;;;;;;;5023306;28;20041;-78
2023/12/29 11:16:21;;;;;;;0.20;0.20;;;;;;;;;;5023392;28;20063;-77
2023/12/29 11:18:51;;;;;;;0.10;0.10;;;;;;;;;;5041362;28;20530;-78
2023/12/29 11:21:25;;;;;;;1.20;0.40;;;;;;;;;;5040926;28;20144;-77
2023/12/29 11:23:52;;;;;;;0.13;0.13;;;;;;;;;;5044908;28;20114;-76
2023/12/29 11:26:21;;;;;;;0.20;0.20;;;;;;;;;;5044275;28;20043;-75
2023/12/29 11:28:48;;;;;;;0.20;0.20;;;;;;;;;;5045862;28;20049;-76
2023/12/29 11:31:17;;;;;;;0.85;0.85;;;;;;;;;;5020659;28;20094;-78
2023/12/29 11:33:52;;;;;;;0.65;0.28;;;;;;;;;;5041231;28;20045;-77
2023/12/29 11:36:25;;;;;;;0.15;0.15;;;;;;;;;;5044428;28;20045;-78
2023/12/29 11:39:00;;;;;;;0.30;0.30;;;;;;;;;;5046451;28;20073;-78
2023/12/29 11:41:36;;;;;;;0.10;0.10;;;;;;;;;;5035083;28;20130;-76
2023/12/29 11:44:04;;;;;;;0.50;0.50;;;;;;;;;;5036554;28;20044;-78
2023/12/29 11:46:39;;;;;;;0.10;0.10;;;;;;;;;;5047415;28;20056;-75
2023/12/29 11:49:06;;;;;;;0.70;0.70;;;;;;;;;;5046635;28;20075;-78
2023/12/29 11:51:35;;;;;;;1.23;0.30;;;;;;;;;;5047464;28;20533;-77
2023/12/29 11:54:04;;;;;;;0.10;0.10;;;;;;;;;;5047834;28;20063;-78
2023/12/29 11:56:36;;;;;;;0.10;0.10;;;;;;;;;;5023586;28;20152;-76
2023/12/29 11:59:19;;;;;;;0.17;0.17;;;;;;;;;;5019921;28;20143;-77
2023/12/29 12:01:48;;;;;;;0.25;0.25;;;;;;;;;;5011375;28;20056;-76
2023/12/29 12:07:31;;;;;;;0.10;0.10;;;;;;;;;;4977107;28;20512;-81
2023/12/29 12:10:20;;;;;;;0.10;0.10;;;;;;;;;;4975402;28;20042;-82
2023/12/29 12:13:06;;;;;;;0.13;0.13;;;;;;;;;;4972938;28;20043;-81
2023/12/29 12:16:44;;;;;;;0.10;0.10;;;;;;;;;;4977507;28;20313;-81
2023/12/29 12:19:39;;;;;;;0.10;0.10;;;;;;;;;;4976729;28;20061;-82
2023/12/29 12:22:18;;;;;;;;;;;;;;;;;;4940575;28;20035;-82
2023/12/29 12:24:59;;;;;;;0.55;0.30;;;;;;;;;;4968331;28;19926;-82
2023/12/29 12:27:43;;;;;;;0.10;0.10;;;;;;;;;;4940657;28;20138;-81
2023/12/29 12:30:30;;;;;;;0.45;0.40;;;;;;;;;;4951630;28;23607;-81
2023/12/29 12:33:11;;;;;;;0.50;0.47;;;;;;;;;;4974112;28;20051;-82
2023/12/29 12:36:00;;;;;;;0.30;0.30;;;;;;;;;;4948885;28;20310;-82
2023/12/29 12:39:11;;;;;;;0.40;0.40;;;;;;;;;;4953109;28;20050;-82
2023/12/29 12:42:05;;;;;;;0.32;0.32;;;;;;;;;;4952219;28;20047;-81
2023/12/29 12:45:22;;;;;;;0.10;0.10;;;;;;;;;;4949498;28;20051;-81
2023/12/29 12:48:22;;;;;;;0.30;0.20;;;;;;;;;;4954613;28;20053;-81
2023/12/29 12:51:06;;;;;;;0.50;0.50;;;;;;;;;;4973299;28;20035;-81
2023/12/29 12:54:01;;;;;;;0.30;0.30;;;;;;;;;;4939402;28;20065;-81
2023/12/29 12:56:47;;;;;;;0.10;0.10;;;;;;;;;;4979738;28;20043;-81
2023/12/29 12:59:40;;;;;;;0.10;0.10;;;;;;;;;;4975698;28;20042;-80
2023/12/29 13:02:19;;;;;;;3.42;0.28;;;;;;;;;;4980481;28;20047;-80
2023/12/29 13:06:02;;;;;;;0.10;0.10;;;;;;;;;;4975540;28;20078;-81
2023/12/29 13:08:41;;;;;;;0.10;0.10;;;;;;;;;;4977736;28;20054;-80
2023/12/29 13:11:55;;;;;;;0.20;0.20;;;;;;;;;;4945123;28;23369;-81
2023/12/29 13:14:35;;;;;;;0.20;0.20;;;;;;;;;;4971072;28;20058;-81
2023/12/29 13:17:28;;;;;;;;;;;;;;;;;;4983630;28;20059;-81
2023/12/29 13:20:58;;;;;;;0.00;0.00;;;;;;;;;;4981909;28;19928;-81
2023/12/29 13:24:36;;;;;;;2.92;0.50;;;;;;;;;;4970626;28;20039;-81
2023/12/29 13:28:08;;;;;;;0.30;0.30;;;;;;;;;;4968670;28;20081;-80
2023/12/29 13:30:55;;;;;;;0.00;0.00;;;;;;;;;;4966706;28;20047;-81
2023/12/29 13:37:19;;;;;;;0.17;0.17;;;;;;;;;;4970872;28;20593;-84
2023/12/29 13:40:47;;;;;;;0.10;0.10;;;;;;;;;;4967653;28;20047;-81
2023/12/29 13:44:03;;;;;;;0.10;0.10;;;;;;;;;;4960543;28;20047;-81
2023/12/29 13:47:29;;;;;;;7.47;0.80;;;;;;;;;;4972477;28;20058;-80
2023/12/29 13:50:29;;;;;;;0.00;0.00;;;;;;;;;;4972195;28;20046;-81
2023/12/29 13:53:15;;;;;;;0.00;0.00;;;;;;;;;;4955903;28;20065;-81
2023/12/29 13:55:58;;;;;;;;;;;;;;;;;;4978706;28;20113;-80
2023/12/29 13:59:05;;;;;;;0.10;0.10;;;;;;;;;;4978219;28;19957;-80
2023/12/29 14:01:51;;;;;;;0.20;0.20;;;;;;;;;;4981022;28;20039;-80
2023/12/29 14:04:45;;;;;;;0.38;0.38;;;;;;;;;;4977721;28;20042;-80
2023/12/29 14:07:37;;;;;;;0.10;0.10;;;;;;;;;;4961224;28;20042;-80
2023/12/29 14:10:54;;;;;;;0.10;0.10;;;;;;;;;;4964767;28;20035;-81
2023/12/29 14:13:38;;;;;;;0.10;0.10;;;;;;;;;;4971289;28;20102;-81
2023/12/29 14:16:19;;;;;;;0.00;0.00;;;;;;;;;;4960327;28;20050;-80
2023/12/29 14:19:09;;;;;;;0.28;0.20;;;;;;;;;;4980492;28;20054;-80
2023/12/29 14:22:09;;;;;;;0.20;0.20;;;;;;;;;;4979244;28;20079;-81
2023/12/29 14:25:33;;;;;;;;;;;;;;;;;;;;;
2023/12/29 14:28:54;;;;;;;0.10;0.10;;;;;;;;;;4960504;28;20103;-80
2023/12/29 14:32:11;;;;;;;0.17;0.17;;;;;;;;;;4977069;28;20063;-81
2023/12/29 14:35:25;;;;;;;0.20;0.20;;;;;;;;;;4969784;28;20042;-81
2023/12/29 14:37:54;;;;;;;0.10;0.10;;;;;;;;;;4972569;28;20043;-80
2023/12/29 14:40:24;;;;;;;0.63;0.63;;;;;;;;;;4978056;28;20058;-81
2023/12/29 14:43:16;;;;;;;0.30;0.30;;;;;;;;;;4972512;28;20042;-80
2023/12/29 14:46:09;;;;;;;0.10;0.10;;;;;;;;;;4970896;28;20055;-81
2023/12/29 14:49:19;;;;;;;0.30;0.30;;;;;;;;;;4958645;28;20047;-81
2023/12/29 14:51:50;;;;;;;0.10;0.10;;;;;;;;;;4949011;28;20039;-80
2023/12/29 14:54:33;;;;;;;0.10;0.10;;;;;;;;;;4978266;28;21046;-81
2023/12/29 14:57:19;;;;;;;0.10;0.10;;;;;;;;;;4974403;28;20299;-81
2023/12/29 15:00:00;;;;;;;0.52;0.52;;;;;;;;;;4978420;28;20529;-81
2023/12/29 15:02:57;;;;;;;;;;;;;;;;;;;;;
2023/12/29 15:05:34;;;;;;;0.10;0.10;;;;;;;;;;4967591;28;20062;-80
2023/12/29 15:08:09;;;;;;;0.10;0.10;;;;;;;;;;4987136;28;20055;-81
2023/12/29 15:10:48;;;;;;;0.40;0.40;;;;;;;;;;4964617;28;20050;-81
2023/12/29 15:13:30;;;;;;;0.20;0.20;;;;;;;;;;4969440;28;20055;-81
2023/12/29 15:16:06;;;;;;;;;;;;;;;;;;4977078;28;20114;-80
2023/12/29 15:18:45;;;;;;;0.68;0.68;;;;;;;;;;4982225;28;19926;-81
2023/12/29 15:21:25;;;;;;;;;;;;;;;;;;4981707;28;20050;-80
2023/12/29 15:23:53;;;;;;;0.30;0.30;;;;;;;;;;4973467;28;19922;-81
2023/12/29 15:26:24;;;;;;;0.20;0.20;;;;;;;;;;4960589;28;20121;-78
2023/12/29 15:28:52;;;;;;;0.10;0.10;;;;;;;;;;4961823;28;20044;-77
2023/12/29 15:31:19;;;;;;;0.20;0.20;;;;;;;;;;4961842;28;20062;-79
2023/12/29 15:33:47;;;;;;;0.30;0.30;;;;;;;;;;4970944;28;20090;-78